createdAt,value
2019-03-30T00:02:22.686Z,99.90
2019-03-30T00:04:52.537Z,99.90
2019-03-30T00:07:22.405Z,99.90
2019-03-30T00:09:52.250Z,99.90
2019-03-30T00:12:23.137Z,99.90
2019-03-30T00:14:53.123Z,99.90
2019-03-30T00:17:23.016Z,99.90
2019-03-30T00:19:52.884Z,99.90
2019-03-30T00:22:22.706Z,99.90
2019-03-30T00:24:52.572Z,99.90
2019-03-30T00:27:22.442Z,99.90
2019-03-30T00:29:52.295Z,99.90
2019-03-30T00:32:22.272Z,99.90
2019-03-30T00:34:52.174Z,99.90
2019-03-30T00:37:22.011Z,99.90
2019-03-30T00:39:52.030Z,99.90
2019-03-30T00:42:21.878Z,99.90
2019-03-30T00:44:51.851Z,99.90
2019-03-30T00:47:21.825Z,99.90
2019-03-30T00:49:51.713Z,99.90
2019-03-30T00:52:21.523Z,99.90
2019-03-30T00:54:51.439Z,99.90
2019-03-30T00:57:21.327Z,99.90
2019-03-30T00:59:51.209Z,99.90
2019-03-30T01:02:21.137Z,99.90
2019-03-30T01:04:51.011Z,99.90
2019-03-30T01:07:21.028Z,99.90
2019-03-30T01:09:50.850Z,99.90
2019-03-30T01:12:20.666Z,99.90
2019-03-30T01:14:50.658Z,99.90
2019-03-30T01:17:20.661Z,99.90
2019-03-30T01:20:02.351Z,99.90
2019-03-30T01:22:22.084Z,99.90
2019-03-30T01:24:51.921Z,99.90
2019-03-30T01:27:21.762Z,99.90
2019-03-30T01:29:51.666Z,99.90
2019-03-30T01:32:21.669Z,99.90
2019-03-30T01:34:51.506Z,99.90
2019-03-30T01:37:21.325Z,99.90
2019-03-30T01:39:51.151Z,99.90
2019-03-30T01:42:20.955Z,99.90
2019-03-30T01:44:50.838Z,99.90
2019-03-30T01:47:20.661Z,99.90
2019-03-30T01:49:50.516Z,99.90
2019-03-30T01:52:20.310Z,99.90
2019-03-30T01:54:50.196Z,99.90
2019-03-30T01:57:20.028Z,99.90
2019-03-30T01:59:49.963Z,99.90
2019-03-30T02:02:19.789Z,99.90
2019-03-30T02:04:49.613Z,99.90
2019-03-30T02:07:19.535Z,99.90
2019-03-30T02:09:49.386Z,99.90
2019-03-30T02:12:19.238Z,99.90
2019-03-30T02:14:49.108Z,99.90
2019-03-30T02:17:20.320Z,99.90
2019-03-30T02:19:50.350Z,99.90
2019-03-30T02:22:20.156Z,99.90
2019-03-30T02:24:50.079Z,99.90
2019-03-30T02:27:19.898Z,99.90
2019-03-30T02:29:49.790Z,99.90
2019-03-30T02:32:19.622Z,99.90
2019-03-30T02:34:49.458Z,99.90
2019-03-30T02:37:19.303Z,99.90
2019-03-30T02:39:49.197Z,99.90
2019-03-30T02:42:19.419Z,99.90
2019-03-30T02:44:49.423Z,99.90
2019-03-30T02:47:19.333Z,99.90
2019-03-30T02:49:49.227Z,99.90
2019-03-30T02:52:19.053Z,99.90
2019-03-30T02:54:48.876Z,99.90
2019-03-30T02:57:18.738Z,99.90
2019-03-30T02:59:48.548Z,99.90
2019-03-30T03:02:18.407Z,99.90
2019-03-30T03:04:48.239Z,99.90
2019-03-30T03:07:18.091Z,99.90
2019-03-30T03:09:47.979Z,99.90
2019-03-30T03:12:17.833Z,99.90
2019-03-30T03:14:47.723Z,99.90
2019-03-30T03:17:17.634Z,99.90
2019-03-30T03:19:47.606Z,99.90
2019-03-30T03:22:17.437Z,99.90
2019-03-30T03:24:47.322Z,99.90
2019-03-30T03:27:17.111Z,99.90
2019-03-30T03:29:46.955Z,99.90
2019-03-30T03:32:16.791Z,99.90
2019-03-30T03:34:46.694Z,99.90
2019-03-30T03:37:16.502Z,99.90
2019-03-30T03:39:46.361Z,99.90
2019-03-30T03:42:16.202Z,99.90
2019-03-30T03:44:46.194Z,99.90
2019-03-30T03:47:16.033Z,99.90
2019-03-30T03:49:45.905Z,99.90
2019-03-30T03:52:16.346Z,99.90
2019-03-30T03:54:46.232Z,99.90
2019-03-30T03:57:19.078Z,99.90
2019-03-30T03:59:53.713Z,99.90
2019-03-30T04:02:25.807Z,99.90
2019-03-30T04:04:56.688Z,99.90
2019-03-30T04:07:29.532Z,99.90
2019-03-30T04:10:01.291Z,99.90
2019-03-30T04:12:34.422Z,99.90
2019-03-30T04:15:06.430Z,99.90
2019-03-30T04:17:36.349Z,99.90
2019-03-30T04:20:06.849Z,99.90
2019-03-30T04:22:36.716Z,99.90
2019-03-30T04:25:07.175Z,99.90
2019-03-30T04:27:37.090Z,99.90
2019-03-30T04:30:07.092Z,99.90
2019-03-30T04:32:36.965Z,99.90
2019-03-30T04:35:07.085Z,99.90
2019-03-30T04:37:36.992Z,99.90
2019-03-30T04:40:06.877Z,99.90
2019-03-30T04:42:36.716Z,99.90
2019-03-30T04:45:06.636Z,99.90
2019-03-30T04:47:36.513Z,99.90
2019-03-30T04:50:07.292Z,99.90
2019-03-30T04:52:37.224Z,99.90
2019-03-30T04:55:07.196Z,99.90
2019-03-30T04:57:37.126Z,99.90
2019-03-30T05:00:08.276Z,99.90
2019-03-30T05:02:38.252Z,99.90
2019-03-30T05:05:08.780Z,99.90
2019-03-30T05:07:39.747Z,99.90
2019-03-30T05:10:09.862Z,99.90
2019-03-30T05:12:39.788Z,99.90
2019-03-30T05:15:11.250Z,99.90
2019-03-30T05:17:47.311Z,99.90
2019-03-30T05:20:13.012Z,99.90
2019-03-30T05:22:44.371Z,99.90
2019-03-30T05:25:14.234Z,99.90
2019-03-30T05:27:44.127Z,99.90
2019-03-30T05:30:14.269Z,99.90
2019-03-30T05:32:44.133Z,99.90
2019-03-30T05:35:13.955Z,99.90
2019-03-30T05:37:43.912Z,99.90
2019-03-30T05:40:14.002Z,99.90
2019-03-30T05:42:43.915Z,99.90
2019-03-30T05:45:13.732Z,99.90
2019-03-30T05:47:43.591Z,99.90
2019-03-30T05:50:13.539Z,99.90
2019-03-30T05:52:43.458Z,99.90
2019-03-30T05:55:13.344Z,99.90
2019-03-30T05:57:43.198Z,99.90
2019-03-30T06:00:15.495Z,99.90
2019-03-30T06:02:45.430Z,99.90
2019-03-30T06:05:15.323Z,99.90
2019-03-30T06:07:45.202Z,99.90
2019-03-30T06:10:15.063Z,99.90
2019-03-30T06:12:44.972Z,99.90
2019-03-30T06:15:14.925Z,99.90
2019-03-30T06:17:50.447Z,99.90
2019-03-30T06:20:16.558Z,99.90
2019-03-30T06:22:46.486Z,99.90
2019-03-30T06:25:16.333Z,99.90
2019-03-30T06:27:46.246Z,99.90
2019-03-30T06:30:20.906Z,99.90
2019-03-30T06:32:50.751Z,99.90
2019-03-30T06:35:20.650Z,99.90
2019-03-30T06:37:50.551Z,99.90
2019-03-30T06:40:20.468Z,99.90
2019-03-30T06:42:50.328Z,99.90
2019-03-30T06:45:20.210Z,99.90
2019-03-30T06:47:50.067Z,99.90
2019-03-30T06:50:20.162Z,99.90
2019-03-30T06:52:57.596Z,99.90
2019-03-30T06:55:21.642Z,99.90
2019-03-30T06:57:51.499Z,99.90
2019-03-30T07:00:32.386Z,99.90
2019-03-30T07:03:05.158Z,99.90
2019-03-30T07:05:41.814Z,99.90
2019-03-30T07:08:15.413Z,99.90
2019-03-30T07:10:49.284Z,99.90
2019-03-30T07:13:19.545Z,99.90
2019-03-30T07:15:52.114Z,99.90
2019-03-30T07:18:22.129Z,99.90
2019-03-30T07:20:51.980Z,99.90
2019-03-30T07:23:21.892Z,99.90
2019-03-30T07:25:51.801Z,99.90
2019-03-30T07:28:21.698Z,99.90
2019-03-30T07:30:51.539Z,99.90
2019-03-30T07:33:21.483Z,99.90
2019-03-30T07:35:51.347Z,99.90
2019-03-30T07:38:21.200Z,99.90
2019-03-30T07:40:51.044Z,99.90
2019-03-30T07:43:20.896Z,99.90
2019-03-30T07:45:50.792Z,99.90
2019-03-30T07:48:20.642Z,99.90
2019-03-30T07:50:50.557Z,99.90
2019-03-30T07:53:26.600Z,99.90
2019-03-30T07:55:52.139Z,99.90
2019-03-30T07:58:22.037Z,99.90
2019-03-30T08:00:51.912Z,99.90
2019-03-30T08:03:21.786Z,99.90
2019-03-30T08:05:54.280Z,99.90
2019-03-30T08:08:23.280Z,99.90
2019-03-30T08:10:53.190Z,99.90
2019-03-30T08:13:23.165Z,99.90
2019-03-30T08:15:53.063Z,99.90
2019-03-30T08:18:22.975Z,99.90
2019-03-30T08:20:52.890Z,99.90
2019-03-30T08:23:22.766Z,99.90
2019-03-30T08:25:52.571Z,99.90
2019-03-30T08:28:22.506Z,99.90
2019-03-30T08:30:52.392Z,99.90
2019-03-30T08:33:22.240Z,99.90
2019-03-30T08:35:52.216Z,99.90
2019-03-30T08:38:22.103Z,99.90
2019-03-30T08:40:51.947Z,99.90
2019-03-30T08:43:21.808Z,99.90
2019-03-30T08:45:51.642Z,99.90
2019-03-30T08:48:21.629Z,99.90
2019-03-30T08:50:51.533Z,99.90
2019-03-30T08:53:21.403Z,99.90
2019-03-30T08:55:51.303Z,99.90
2019-03-30T08:58:21.195Z,99.90
2019-03-30T09:00:51.029Z,99.90
2019-03-30T09:03:20.877Z,99.90
2019-03-30T09:05:50.685Z,99.90
2019-03-30T09:08:20.540Z,99.90
2019-03-30T09:10:50.407Z,99.90
2019-03-30T09:13:20.337Z,99.90
2019-03-30T09:15:50.880Z,99.80
2019-03-30T09:18:20.728Z,99.90
2019-03-30T09:20:50.623Z,99.90
2019-03-30T09:23:20.475Z,99.80
2019-03-30T09:25:50.321Z,99.60
2019-03-30T09:28:20.226Z,99.90
2019-03-30T09:30:50.089Z,99.70
2019-03-30T09:33:19.992Z,99.60
2019-03-30T09:35:50.006Z,99.90
2019-03-30T09:38:38.680Z,99.70
2019-03-30T09:41:08.578Z,99.60
2019-03-30T09:43:38.414Z,99.90
2019-03-30T09:46:08.276Z,99.40
2019-03-30T09:48:38.249Z,99.00
2019-03-30T09:51:08.177Z,99.40
2019-03-30T09:53:38.034Z,98.90
2019-03-30T09:56:07.999Z,98.80
2019-03-30T09:58:38.306Z,98.10
2019-03-30T10:01:08.183Z,98.50
2019-03-30T10:03:38.064Z,98.30
2019-03-30T10:06:08.400Z,98.80
2019-03-30T10:08:38.345Z,98.30
2019-03-30T10:11:08.260Z,98.40
2019-03-30T10:13:38.152Z,98.50
2019-03-30T10:16:08.094Z,98.50
2019-03-30T10:18:37.964Z,98.50
2019-03-30T10:21:07.866Z,98.30
2019-03-30T10:23:37.968Z,98.40
2019-03-30T10:26:08.157Z,98.20
2019-03-30T10:28:38.136Z,97.40
2019-03-30T10:31:07.991Z,97.70
2019-03-30T10:33:37.866Z,97.70
2019-03-30T10:36:07.784Z,97.30
2019-03-30T10:38:37.680Z,97.60
2019-03-30T10:41:07.548Z,97.20
2019-03-30T10:43:37.435Z,97.00
2019-03-30T10:46:07.375Z,96.10
2019-03-30T10:48:37.233Z,95.00
2019-03-30T10:51:09.234Z,95.50
2019-03-30T10:53:39.106Z,95.00
2019-03-30T10:56:09.158Z,94.20
2019-03-30T10:58:40.197Z,93.70
2019-03-30T11:01:10.271Z,94.60
2019-03-30T11:03:41.931Z,91.70
2019-03-30T11:06:11.835Z,92.00
2019-03-30T11:08:41.767Z,93.00
2019-03-30T11:11:11.751Z,93.50
2019-03-30T11:13:41.901Z,91.80
2019-03-30T11:16:12.095Z,93.20
2019-03-30T11:19:00.925Z,92.30
2019-03-30T11:21:31.091Z,92.30
2019-03-30T11:24:01.299Z,92.10
2019-03-30T11:26:31.462Z,91.10
2019-03-30T11:29:01.558Z,90.50
2019-03-30T11:31:31.726Z,87.10
2019-03-30T11:34:01.877Z,90.10
2019-03-30T11:36:31.992Z,87.60
2019-03-30T11:39:02.268Z,88.50
2019-03-30T11:41:32.303Z,88.70
2019-03-30T11:44:02.540Z,88.00
2019-03-30T11:46:32.652Z,89.10
2019-03-30T11:49:02.792Z,89.50
2019-03-30T11:51:32.812Z,89.40
2019-03-30T11:54:05.277Z,86.30
2019-03-30T11:56:34.709Z,86.70
2019-03-30T11:59:04.821Z,85.50
2019-03-30T12:01:34.794Z,83.80
2019-03-30T12:04:04.896Z,83.20
2019-03-30T12:06:34.892Z,81.10
2019-03-30T12:09:07.132Z,79.80
2019-03-30T12:11:37.467Z,80.00
2019-03-30T12:14:10.678Z,80.90
2019-03-30T12:16:40.794Z,77.20
2019-03-30T12:19:11.085Z,80.00
2019-03-30T12:21:41.269Z,78.10
2019-03-30T12:24:11.456Z,80.40
2019-03-30T12:26:41.520Z,79.80
2019-03-30T12:29:11.878Z,78.80
2019-03-30T12:31:42.194Z,77.20
2019-03-30T12:34:17.401Z,79.20
2019-03-30T12:36:48.575Z,79.10
2019-03-30T12:39:18.567Z,80.50
2019-03-30T12:41:48.857Z,79.00
2019-03-30T12:44:18.993Z,77.40
2019-03-30T12:46:49.227Z,77.70
2019-03-30T12:49:19.301Z,77.50
2019-03-30T12:51:49.425Z,72.10
2019-03-30T12:54:19.452Z,73.00
2019-03-30T12:56:49.320Z,74.10
2019-03-30T12:59:19.517Z,74.10
2019-03-30T13:01:49.376Z,72.00
2019-03-30T13:04:19.303Z,72.20
2019-03-30T13:06:49.166Z,73.50
2019-03-30T13:09:19.105Z,74.00
2019-03-30T13:11:48.989Z,70.30
2019-03-30T13:14:19.035Z,69.60
2019-03-30T13:16:48.991Z,68.20
2019-03-30T13:19:18.907Z,67.90
2019-03-30T13:21:53.138Z,71.50
2019-03-30T13:24:20.427Z,71.80
2019-03-30T13:26:50.285Z,72.20
2019-03-30T13:29:20.214Z,69.50
2019-03-30T13:31:50.159Z,68.60
2019-03-30T13:34:20.056Z,68.60
2019-03-30T13:36:50.018Z,68.70
2019-03-30T13:39:19.972Z,68.60
2019-03-30T13:41:49.884Z,68.40
2019-03-30T13:44:19.742Z,66.80
2019-03-30T13:46:49.618Z,69.00
2019-03-30T13:49:19.535Z,67.50
2019-03-30T13:51:49.414Z,69.00
2019-03-30T13:54:19.350Z,68.60
2019-03-30T13:56:49.246Z,69.70
2019-03-30T13:59:19.160Z,69.80
2019-03-30T14:01:50.149Z,63.50
2019-03-30T14:04:20.045Z,63.60
2019-03-30T14:06:49.902Z,64.30
2019-03-30T14:09:19.781Z,65.70
2019-03-30T14:11:49.698Z,62.60
2019-03-30T14:14:19.663Z,64.40
2019-03-30T14:16:49.586Z,66.30
2019-03-30T14:19:19.529Z,68.00
2019-03-30T14:21:49.406Z,66.80
2019-03-30T14:24:19.675Z,67.90
2019-03-30T14:26:50.110Z,66.20
2019-03-30T14:29:20.293Z,62.50
2019-03-30T14:31:50.598Z,61.40
2019-03-30T14:34:20.734Z,64.90
2019-03-30T14:36:50.962Z,64.20
2019-03-30T14:39:21.213Z,63.50
2019-03-30T14:41:51.497Z,66.50
2019-03-30T14:44:21.589Z,65.80
2019-03-30T14:46:51.823Z,64.60
2019-03-30T14:49:22.186Z,62.90
2019-03-30T14:51:52.393Z,65.50
2019-03-30T14:54:22.433Z,67.10
2019-03-30T14:56:52.388Z,66.80
2019-03-30T14:59:22.341Z,66.80
2019-03-30T15:01:52.281Z,65.30
2019-03-30T15:04:22.331Z,66.50
2019-03-30T15:06:52.235Z,66.00
2019-03-30T15:09:22.107Z,65.00
2019-03-30T15:11:52.008Z,65.70
2019-03-30T15:14:21.856Z,65.60
2019-03-30T15:16:51.773Z,62.70
2019-03-30T15:19:21.740Z,61.40
2019-03-30T15:21:51.702Z,65.30
2019-03-30T15:24:21.579Z,64.30
2019-03-30T15:26:59.889Z,64.20
2019-03-30T15:29:23.049Z,62.90
2019-03-30T15:31:52.989Z,64.10
2019-03-30T15:34:22.918Z,62.60
2019-03-30T15:36:52.891Z,63.80
2019-03-30T15:39:22.863Z,63.70
2019-03-30T15:41:52.811Z,62.20
2019-03-30T15:44:22.686Z,64.00
2019-03-30T15:46:52.612Z,64.60
2019-03-30T15:49:22.490Z,63.30
2019-03-30T15:51:52.412Z,64.30
2019-03-30T15:54:22.377Z,62.80
2019-03-30T15:56:52.280Z,62.30
2019-03-30T15:59:22.324Z,64.00
2019-03-30T16:01:52.410Z,63.50
2019-03-30T16:04:22.383Z,63.50
2019-03-30T16:06:52.408Z,63.60
2019-03-30T16:09:22.394Z,62.60
2019-03-30T16:11:52.665Z,63.40
2019-03-30T16:14:22.738Z,63.80
2019-03-30T16:16:52.860Z,63.80
2019-03-30T16:19:23.007Z,62.00
2019-03-30T16:21:53.087Z,63.40
2019-03-30T16:24:23.200Z,63.50
2019-03-30T16:26:53.343Z,63.40
2019-03-30T16:29:23.539Z,62.90
2019-03-30T16:31:53.751Z,63.10
2019-03-30T16:34:24.005Z,62.70
2019-03-30T16:36:54.243Z,62.50
2019-03-30T16:39:24.649Z,61.90
2019-03-30T16:41:54.825Z,62.40
2019-03-30T16:44:24.993Z,62.60
2019-03-30T16:46:57.483Z,62.40
2019-03-30T16:49:27.825Z,62.30
2019-03-30T16:52:02.352Z,62.10
2019-03-30T16:54:32.263Z,58.20
2019-03-30T16:57:02.175Z,59.20
2019-03-30T16:59:32.080Z,61.80
2019-03-30T17:02:02.117Z,62.60
2019-03-30T17:04:31.974Z,62.30
2019-03-30T17:07:01.891Z,60.90
2019-03-30T17:09:31.777Z,63.30
2019-03-30T17:12:01.753Z,64.30
2019-03-30T17:14:31.629Z,64.20
2019-03-30T17:17:01.565Z,63.90
2019-03-30T17:19:31.518Z,64.00
2019-03-30T17:22:01.676Z,64.40
2019-03-30T17:24:31.627Z,65.20
2019-03-30T17:27:01.583Z,65.10
2019-03-30T17:29:31.474Z,65.30
2019-03-30T17:32:01.444Z,65.20
2019-03-30T17:34:31.334Z,65.30
2019-03-30T17:37:01.589Z,65.60
2019-03-30T17:39:31.586Z,65.00
2019-03-30T17:42:01.574Z,65.80
2019-03-30T17:44:31.445Z,67.50
2019-03-30T17:47:01.550Z,64.20
2019-03-30T17:49:31.456Z,63.80
2019-03-30T17:52:01.569Z,66.10
2019-03-30T17:54:31.442Z,68.40
2019-03-30T17:57:01.590Z,69.80
2019-03-30T17:59:31.442Z,71.10
2019-03-30T18:02:01.482Z,70.50
2019-03-30T18:04:31.404Z,70.50
2019-03-30T18:07:01.561Z,71.30
2019-03-30T18:09:31.483Z,72.20
2019-03-30T18:12:01.435Z,72.50
2019-03-30T18:14:31.386Z,72.40
2019-03-30T18:17:01.227Z,72.00
2019-03-30T18:19:31.207Z,73.60
2019-03-30T18:22:01.176Z,72.30
2019-03-30T18:24:31.058Z,72.10
2019-03-30T18:27:01.070Z,72.30
2019-03-30T18:29:31.082Z,73.40
2019-03-30T18:32:01.138Z,71.00
2019-03-30T18:34:31.645Z,72.80
2019-03-30T18:37:01.927Z,74.20
2019-03-30T18:39:31.942Z,74.70
2019-03-30T18:42:01.838Z,74.70
2019-03-30T18:44:31.736Z,75.40
2019-03-30T18:47:01.645Z,75.80
2019-03-30T18:49:31.536Z,76.00
2019-03-30T18:52:02.019Z,75.80
2019-03-30T18:54:32.212Z,74.50
2019-03-30T18:57:02.153Z,75.00
2019-03-30T18:59:32.028Z,73.30
2019-03-30T19:02:05.056Z,73.80
2019-03-30T19:04:39.055Z,75.70
2019-03-30T19:07:13.377Z,76.20
2019-03-30T19:09:43.351Z,76.80
2019-03-30T19:12:15.494Z,77.60
2019-03-30T19:14:47.127Z,78.60
2019-03-30T19:17:16.957Z,80.00
2019-03-30T19:19:50.232Z,79.00
2019-03-30T19:22:20.381Z,80.10
2019-03-30T19:24:50.446Z,79.70
2019-03-30T19:27:20.465Z,81.10
2019-03-30T19:29:50.372Z,81.40
2019-03-30T19:32:20.223Z,80.50
2019-03-30T19:34:50.105Z,81.00
2019-03-30T19:37:20.031Z,82.00
2019-03-30T19:39:49.947Z,82.10
2019-03-30T19:42:19.822Z,82.80
2019-03-30T19:44:49.713Z,84.20
2019-03-30T19:47:19.577Z,84.70
2019-03-30T19:49:49.495Z,83.10
2019-03-30T19:52:19.393Z,83.30
2019-03-30T19:54:49.280Z,83.00
2019-03-30T19:57:19.167Z,81.60
2019-03-30T19:59:49.074Z,83.10
2019-03-30T20:02:18.930Z,83.30
2019-03-30T20:04:48.890Z,83.60
2019-03-30T20:07:18.735Z,83.80
2019-03-30T20:09:48.644Z,84.00
2019-03-30T20:12:18.615Z,84.30
2019-03-30T20:14:48.678Z,84.80
2019-03-30T20:17:18.541Z,85.00
2019-03-30T20:19:48.590Z,84.40
2019-03-30T20:22:22.740Z,84.40
2019-03-30T20:24:52.695Z,83.70
2019-03-30T20:27:22.638Z,83.80
2019-03-30T20:29:52.595Z,84.80
2019-03-30T20:32:22.470Z,85.30
2019-03-30T20:34:52.424Z,85.30
2019-03-30T20:37:22.349Z,85.90
2019-03-30T20:39:52.370Z,87.00
2019-03-30T20:42:22.276Z,87.90
2019-03-30T20:44:52.353Z,88.90
2019-03-30T20:47:22.512Z,88.70
2019-03-30T20:49:52.564Z,88.70
2019-03-30T20:52:22.634Z,88.30
2019-03-30T20:54:52.783Z,88.70
2019-03-30T20:57:22.872Z,89.10
2019-03-30T20:59:53.045Z,89.80
2019-03-30T21:02:23.522Z,89.60
2019-03-30T21:04:54.036Z,90.00
2019-03-30T21:07:24.251Z,89.90
2019-03-30T21:09:54.356Z,90.50
2019-03-30T21:12:24.698Z,90.00
2019-03-30T21:14:54.719Z,90.10
2019-03-30T21:17:24.702Z,90.00
2019-03-30T21:19:54.784Z,89.10
2019-03-30T21:22:24.888Z,87.10
2019-03-30T21:24:54.846Z,88.30
2019-03-30T21:27:24.704Z,88.50
2019-03-30T21:29:55.275Z,88.80
2019-03-30T21:32:25.342Z,88.30
2019-03-30T21:34:55.269Z,87.60
2019-03-30T21:37:25.120Z,88.60
2019-03-30T21:39:55.092Z,89.70
2019-03-30T21:42:25.123Z,90.10
2019-03-30T21:44:54.988Z,90.60
2019-03-30T21:47:24.865Z,90.90
2019-03-30T21:49:55.221Z,91.10
2019-03-30T21:52:25.249Z,91.10
2019-03-30T21:54:57.805Z,91.20
2019-03-30T21:57:26.686Z,91.50
2019-03-30T22:00:09.270Z,91.70
2019-03-30T22:02:28.238Z,91.40
2019-03-30T22:04:58.087Z,91.60
2019-03-30T22:07:28.363Z,91.50
2019-03-30T22:09:58.339Z,91.30
2019-03-30T22:12:28.294Z,91.20
2019-03-30T22:15:01.503Z,91.20
2019-03-30T22:17:31.414Z,91.40
2019-03-30T22:20:01.390Z,91.10
2019-03-30T22:22:31.276Z,90.90
2019-03-30T22:25:01.200Z,90.90
2019-03-30T22:27:34.022Z,90.80
2019-03-30T22:30:25.015Z,90.90
2019-03-30T22:32:54.043Z,90.80
2019-03-30T22:35:23.812Z,90.90
2019-03-30T22:37:53.539Z,91.10
2019-03-30T22:40:23.330Z,91.40
2019-03-30T22:42:53.128Z,91.80
2019-03-30T22:45:22.941Z,92.00
2019-03-30T22:47:52.740Z,92.30
2019-03-30T22:50:22.544Z,92.90
2019-03-30T22:52:52.283Z,93.40
2019-03-30T22:55:22.115Z,93.80
2019-03-30T22:57:51.897Z,94.20
2019-03-30T23:00:40.153Z,94.40
2019-03-30T23:03:10.715Z,94.70
2019-03-30T23:05:40.463Z,94.90
2019-03-30T23:08:10.241Z,96.00
2019-03-30T23:10:40.024Z,95.80
2019-03-30T23:13:09.718Z,96.10
2019-03-30T23:15:39.521Z,96.30
2019-03-30T23:18:09.254Z,96.40
2019-03-30T23:20:39.051Z,96.30
2019-03-30T23:23:08.757Z,96.20
2019-03-30T23:25:38.545Z,96.10
2019-03-30T23:28:08.218Z,95.90
2019-03-30T23:30:38.007Z,96.20
2019-03-30T23:33:07.710Z,96.70
2019-03-30T23:35:37.392Z,96.50
2019-03-30T23:38:07.200Z,96.60
2019-03-30T23:40:36.957Z,96.60
2019-03-30T23:43:06.760Z,96.60
2019-03-30T23:45:36.555Z,96.30
2019-03-30T23:48:06.260Z,95.80
2019-03-30T23:50:36.045Z,95.70
2019-03-30T23:53:07.400Z,95.50
2019-03-30T23:55:37.506Z,95.50
2019-03-30T23:58:07.312Z,95.40
